Terminal Aerodrome Forecast
Issued by NWS

Home | Current Version | Previous Version | Graphics & Text | Print | Product List | Glossary On
Versions: 1 2 3 4 5 6 7 8 9 10 11 12 13 14 15 16 17 18 19
000
FTUS43 KBIS 231120
TAFJMS
TAF
KJMS 231120Z 2312/2412 06013G21KT P6SM OVC015
     FM240900 08012G21KT P6SM OVC010
     FM241000 07012G20KT P6SM -RASN OVC010=

USA.gov is the U.S. government's official web portal to all federal, state and local government web resources and services.